Time;durP1;ratioP1;P1;durP2;ratioP2;P2;SDS_P1;SDS_P2;PMS_P1;PMS_P2;Temp;Humidity;BMP_temperature;BMP_pressure;BME280_temperature;BME280_humidity;BME280_pressure;Samples;Min_cycle;Max_cycle;Signal;HPM_P1;HPM_P2
2021/07/19 00:02:20;;;;;;;8.90;3.80;;;;;;;14.55;73.36;99494.75;1711466;82;21046;-65
2021/07/19 00:04:47;;;;;;;14.63;3.70;;;;;;;14.55;73.48;99496.06;1720799;81;21615;-65
2021/07/19 00:07:14;;;;;;;7.08;2.85;;;;;;;14.60;73.59;99493.61;1715763;83;20986;-65
2021/07/19 00:09:44;;;;;;;8.75;3.08;;;;;;;14.61;73.57;99496.59;1720664;83;21043;-65
2021/07/19 00:12:14;;;;;;;7.97;3.02;;;;;;;14.60;73.62;99489.67;1713681;83;21029;-64
2021/07/19 00:14:42;;;;;;;6.37;3.15;;;;;;;14.60;73.58;99484.41;1690355;84;21002;-65
2021/07/19 00:17:09;;;;;;;6.55;2.77;;;;;;;14.61;73.65;99491.34;1725389;82;21066;-65
2021/07/19 00:19:35;;;;;;;18.00;3.70;;;;;;;14.59;73.95;99493.22;1727171;81;21037;-65
2021/07/19 00:22:04;;;;;;;9.85;3.52;;;;;;;14.59;73.75;99485.34;1717592;83;20966;-65
2021/07/19 00:24:30;;;;;;;7.92;3.08;;;;;;;14.58;73.70;99483.67;1714318;83;21496;-65
2021/07/19 00:26:57;;;;;;;5.20;2.97;;;;;;;14.54;73.78;99480.42;1722038;82;21045;-65
2021/07/19 00:29:24;;;;;;;7.97;3.60;;;;;;;14.50;73.87;99478.41;1720879;82;22272;-65
2021/07/19 00:31:50;;;;;;;10.95;3.83;;;;;;;14.52;74.03;99473.94;1713597;82;20962;-65
2021/07/19 00:34:17;;;;;;;7.73;3.53;;;;;;;14.51;73.96;99478.80;1708601;83;21019;-64
2021/07/19 00:36:44;;;;;;;10.10;3.75;;;;;;;14.49;73.90;99475.43;1703129;83;21763;-65
2021/07/19 00:39:11;;;;;;;11.70;3.65;;;;;;;14.45;74.10;99476.59;1698867;83;21029;-65
2021/07/19 00:41:38;;;;;;;5.75;3.17;;;;;;;14.45;74.13;99487.55;1710587;83;23196;-65
2021/07/19 00:44:07;;;;;;;7.22;2.98;;;;;;;14.42;74.17;99485.97;1700520;83;20966;-65
2021/07/19 00:46:34;;;;;;;11.20;3.15;;;;;;;14.45;74.30;99485.79;1704727;83;20954;-65
2021/07/19 00:49:01;;;;;;;7.87;3.47;;;;;;;14.47;74.32;99484.36;1695755;83;21403;-64
2021/07/19 00:51:28;;;;;;;12.33;3.45;;;;;;;14.48;74.33;99481.64;1697429;83;21023;-65
2021/07/19 00:53:54;;;;;;;9.65;3.65;;;;;;;14.50;74.39;99482.36;1714826;83;21115;-65
2021/07/19 00:56:22;;;;;;;11.80;3.90;;;;;;;14.50;74.30;99484.98;1700229;83;20990;-65
2021/07/19 00:58:51;;;;;;;8.88;3.55;;;;;;;14.48;74.41;99488.20;1699615;83;20979;-65
2021/07/19 01:01:20;;;;;;;10.25;3.67;;;;;;;14.39;74.20;99487.48;1713403;83;20994;-65
2021/07/19 01:03:48;;;;;;;5.80;2.92;;;;;;;14.33;74.46;99495.78;1699466;82;21109;-64
2021/07/19 01:06:18;;;;;;;9.23;2.98;;;;;;;14.29;74.59;99491.21;1699635;83;21184;-65
2021/07/19 01:08:46;;;;;;;9.40;3.98;;;;;;;14.27;74.54;99494.88;1704598;83;21524;-65
2021/07/19 01:11:14;;;;;;;7.42;3.37;;;;;;;14.25;74.76;99491.03;1704977;83;21004;-65
2021/07/19 01:13:41;;;;;;;7.47;3.12;;;;;;;14.20;74.66;99494.90;1703604;83;21025;-65
2021/07/19 01:16:08;;;;;;;8.13;3.10;;;;;;;14.16;74.56;99490.80;1711844;83;20962;-65
2021/07/19 01:18:35;;;;;;;8.20;2.98;;;;;;;14.16;74.94;99489.50;1698028;84;21109;-65
2021/07/19 01:21:38;;;;;;;12.65;3.55;;;;;;;14.15;74.83;99489.14;1702893;83;21013;-65
2021/07/19 01:24:30;;;;;;;20.10;4.70;;;;;;;14.12;74.88;99486.71;1707794;82;21787;-65
2021/07/19 01:27:40;;;;;;;10.23;3.72;;;;;;;14.12;74.89;99491.97;1701549;83;20998;-65
2021/07/19 01:30:08;;;;;;;10.63;3.08;;;;;;;14.07;74.98;99494.88;1649815;85;20994;-65
2021/07/19 01:32:43;;;;;;;12.55;3.83;;;;;;;13.93;74.89;99480.02;1658256;86;22122;-65
2021/07/19 01:35:13;;;;;;;10.03;3.60;;;;;;;13.98;74.97;99497.63;1645297;85;21613;-65
2021/07/19 01:37:42;;;;;;;9.58;3.40;;;;;;;13.86;75.13;99482.66;1656158;85;21571;-64
2021/07/19 01:40:11;;;;;;;6.53;3.42;;;;;;;13.93;75.26;99501.02;1658370;85;21076;-65
2021/07/19 01:42:39;;;;;;;11.22;3.37;;;;;;;13.96;75.21;99506.07;1660216;85;21018;-65
2021/07/19 01:45:09;;;;;;;10.80;3.67;;;;;;;14.03;75.40;99506.06;1645573;85;21130;-65
2021/07/19 01:47:38;;;;;;;11.53;3.67;;;;;;;14.15;75.39;99508.83;1649684;86;21046;-65
2021/07/19 01:50:08;;;;;;;9.55;3.05;;;;;;;14.15;75.39;99508.83;1634485;87;21579;-65
2021/07/19 01:52:36;;;;;;;9.75;3.52;;;;;;;14.08;75.49;99494.77;1654593;86;21050;-65
2021/07/19 01:55:05;;;;;;;8.93;3.10;;;;;;;14.08;75.49;99494.77;1686330;84;21613;-65
2021/07/19 01:57:31;;;;;;;9.43;3.40;;;;;;;14.26;75.49;99515.53;1632986;87;21127;-64
2021/07/19 02:00:00;;;;;;;6.62;3.00;;;;;;;14.16;75.39;99493.44;1613769;87;21584;-65
2021/07/19 02:02:27;;;;;;;9.55;2.83;;;;;;;14.25;75.43;99524.33;1642195;87;21163;-65
2021/07/19 02:04:54;;;;;;;11.38;3.60;;;;;;;14.20;75.39;99505.41;1642572;87;21073;-65
2021/07/19 02:07:25;;;;;;;9.60;3.30;;;;;;;14.18;75.41;99512.56;1681409;84;26138;-65
2021/07/19 02:09:53;;;;;;;19.42;3.27;;;;;;;14.01;75.72;99493.49;1701736;84;22001;-65
2021/07/19 02:12:20;;;;;;;18.10;4.05;;;;;;;14.01;75.72;99493.49;1702411;84;20989;-65
2021/07/19 02:14:49;;;;;;;14.30;4.60;;;;;;;14.09;75.47;99516.63;1692351;84;21100;-65
2021/07/19 02:17:17;;;;;;;8.45;3.08;;;;;;;14.07;75.63;99515.41;1698091;84;20951;-65
2021/07/19 02:19:48;;;;;;;9.53;3.10;;;;;;;14.06;75.54;99519.46;1702709;84;21109;-65
2021/07/19 02:22:16;;;;;;;8.80;3.62;;;;;;;14.02;75.55;99518.80;1704220;83;21093;-65
2021/07/19 02:24:43;;;;;;;11.83;4.20;;;;;;;13.97;75.63;99520.87;1687052;82;20960;-65
2021/07/19 02:27:09;;;;;;;10.03;4.08;;;;;;;13.97;75.82;99523.49;1715563;83;21005;-65
2021/07/19 02:29:37;;;;;;;11.13;3.70;;;;;;;13.92;75.59;99522.97;1689478;84;21009;-65
2021/07/19 02:32:06;;;;;;;7.72;3.30;;;;;;;13.89;75.59;99516.58;1697276;83;21041;-65
2021/07/19 02:34:33;;;;;;;11.10;3.50;;;;;;;13.75;75.86;99503.50;1705232;83;21090;-65
2021/07/19 02:37:01;;;;;;;10.28;3.75;;;;;;;13.75;75.86;99503.50;1710020;83;21059;-65
2021/07/19 02:39:30;;;;;;;13.53;4.33;;;;;;;13.85;76.02;99525.60;1703454;83;26540;-65
2021/07/19 02:41:59;;;;;;;10.13;3.45;;;;;;;13.86;75.97;99530.77;1684515;83;20947;-65
2021/07/19 02:44:26;;;;;;;7.70;3.55;;;;;;;13.69;76.22;99507.84;1726900;83;20967;-65
2021/07/19 02:46:54;;;;;;;5.75;3.37;;;;;;;13.69;76.22;99507.84;1700276;83;21087;-65
2021/07/19 02:49:22;;;;;;;10.68;3.52;;;;;;;13.79;76.01;99522.06;1689895;83;21085;-65
2021/07/19 02:51:52;;;;;;;10.08;3.50;;;;;;;13.83;75.97;99514.35;1686966;83;20939;-65
2021/07/19 02:54:21;;;;;;;11.65;3.17;;;;;;;13.83;75.97;99514.35;1695345;83;21117;-64
2021/07/19 02:56:49;;;;;;;5.55;2.80;;;;;;;13.83;76.08;99513.05;1725270;83;20950;-65
2021/07/19 02:59:16;;;;;;;7.58;2.90;;;;;;;13.89;76.23;99517.89;1687897;83;21068;-65
2021/07/19 03:01:45;;;;;;;11.03;3.20;;;;;;;13.94;76.20;99518.44;1740945;81;20950;-65
2021/07/19 03:04:13;;;;;;;8.90;3.12;;;;;;;14.01;76.08;99515.81;1732360;82;21040;-65
2021/07/19 03:06:43;;;;;;;10.15;2.80;;;;;;;14.12;75.95;99526.09;1713345;82;21042;-65
2021/07/19 03:09:12;;;;;;;6.30;3.05;;;;;;;14.36;76.39;99523.63;1742721;81;21315;-65
2021/07/19 03:11:42;;;;;;;8.15;3.42;;;;;;;14.75;76.42;99520.16;1723614;83;21107;-64
2021/07/19 03:14:14;;;;;;;9.75;2.80;;;;;;;15.09;75.96;99519.16;1731623;81;21001;-65
2021/07/19 03:16:44;;;;;;;5.33;2.50;;;;;;;15.45;75.89;99519.69;1750736;81;21007;-64
2021/07/19 03:19:14;;;;;;;11.48;3.08;;;;;;;15.87;75.78;99519.75;1714496;82;21527;-65
2021/07/19 03:21:43;;;;;;;21.68;3.85;;;;;;;16.29;75.69;99512.78;1734474;81;21589;-64
2021/07/19 03:24:12;;;;;;;17.87;4.05;;;;;;;16.71;75.44;99517.94;1715572;81;21100;-64
2021/07/19 03:26:41;;;;;;;26.57;4.20;;;;;;;17.11;75.18;99518.89;1735231;81;20970;-64
2021/07/19 03:29:10;;;;;;;16.60;3.08;;;;;;;17.30;74.64;99520.07;1716364;83;20956;-64
2021/07/19 03:31:37;;;;;;;9.38;3.67;;;;;;;17.20;74.07;99518.16;1707837;83;20965;-65
2021/07/19 03:34:05;;;;;;;;;;;;;;;17.04;74.12;99525.58;1661043;85;21022;-64
2021/07/19 03:36:34;;;;;;;22.73;4.05;;;;;;;16.78;73.84;99528.42;1696888;83;21166;-64
2021/07/19 03:39:05;;;;;;;14.13;3.60;;;;;;;16.49;74.03;99524.47;1696197;83;21692;-64
2021/07/19 03:41:33;;;;;;;23.92;4.08;;;;;;;16.25;74.29;99525.34;1702393;83;21018;-64
2021/07/19 03:44:02;;;;;;;47.05;5.30;;;;;;;16.10;74.33;99534.36;1694981;83;20958;-64
2021/07/19 03:46:29;;;;;;;28.62;3.92;;;;;;;15.95;74.23;99531.54;1691634;83;20915;-64
2021/07/19 03:48:56;;;;;;;;;;;;;;;15.82;74.32;99535.07;1695623;83;21989;-64
2021/07/19 03:51:27;;;;;;;13.72;3.20;;;;;;;15.74;74.28;99530.83;1702544;84;20125;-64
2021/07/19 03:53:54;;;;;;;24.27;4.53;;;;;;;15.88;74.46;99530.67;1676819;84;21084;-64
2021/07/19 03:56:27;;;;;;;48.68;6.17;;;;;;;15.88;74.16;99529.36;1677489;84;21004;-64
2021/07/19 03:58:56;;;;;;;33.38;5.50;;;;;;;15.84;74.05;99531.83;1693668;84;21053;-64
2021/07/19 04:01:25;;;;;;;40.70;4.70;;;;;;;15.76;74.04;99528.91;1699017;83;21113;-64
2021/07/19 04:03:54;;;;;;;12.75;3.85;;;;;;;15.72;73.93;99522.20;1669301;85;20979;-64
2021/07/19 04:06:23;;;;;;;69.22;6.47;;;;;;;15.65;73.89;99527.48;1691744;84;20963;-65
2021/07/19 04:08:50;;;;;;;15.75;4.15;;;;;;;15.62;73.96;99529.02;1666318;85;21108;-65
2021/07/19 04:11:19;;;;;;;25.95;3.83;;;;;;;15.56;73.87;99526.83;1696108;83;20926;-65
2021/07/19 04:13:46;;;;;;;11.05;3.65;;;;;;;15.53;73.88;99520.47;1696789;83;21308;-65
2021/07/19 04:16:15;;;;;;;14.83;3.10;;;;;;;16.46;75.26;99523.38;1699490;83;20974;-65
2021/07/19 04:18:42;;;;;;;11.22;3.42;;;;;;;17.61;74.18;99521.95;1688886;84;21086;-65
2021/07/19 04:21:11;;;;;;;17.15;4.20;;;;;;;17.91;73.47;99528.42;1694287;84;21028;-65
2021/07/19 04:23:40;;;;;;;16.00;3.62;;;;;;;18.73;73.58;99519.91;1689192;84;21002;-64
2021/07/19 04:26:07;;;;;;;16.80;4.10;;;;;;;19.69;72.81;99521.39;1687641;84;21083;-65
2021/07/19 04:28:35;;;;;;;12.20;3.10;;;;;;;19.71;71.75;99519.42;1693100;84;21546;-65
2021/07/19 04:31:02;;;;;;;47.48;5.33;;;;;;;19.59;72.00;99505.43;1696098;84;20953;-65
2021/07/19 04:33:29;;;;;;;15.72;3.87;;;;;;;20.61;72.03;99525.02;1701946;84;21622;-65
2021/07/19 04:35:56;;;;;;;42.95;5.33;;;;;;;21.76;72.52;99511.99;1708411;83;21034;-65
2021/07/19 04:38:24;;;;;;;19.80;4.00;;;;;;;22.84;71.23;99510.98;1706727;82;21468;-66
2021/07/19 04:40:58;;;;;;;20.70;4.20;;;;;;;23.28;70.05;99504.28;1705787;82;21515;-65
2021/07/19 04:43:27;;;;;;;45.65;5.47;;;;;;;22.95;69.21;99510.76;1706523;83;21085;-65
2021/07/19 04:45:54;;;;;;;10.70;3.08;;;;;;;22.53;68.98;99514.09;1707799;83;20953;-65
2021/07/19 04:48:22;;;;;;;15.70;3.08;;;;;;;21.98;68.56;99517.38;1708186;83;21033;-65
2021/07/19 04:50:50;;;;;;;24.67;3.90;;;;;;;21.57;68.66;99519.11;1708994;83;21089;-65
2021/07/19 04:53:17;;;;;;;26.82;4.78;;;;;;;21.35;68.59;99516.80;1708338;83;20947;-65
2021/07/19 04:55:49;;;;;;;;;;;;;;;21.19;68.41;99515.59;1706486;83;21018;-65
2021/07/19 04:58:20;;;;;;;21.12;4.30;;;;;;;21.18;67.93;99515.27;1717838;82;20429;-65
2021/07/19 05:00:52;;;;;;;49.63;4.80;;;;;;;21.13;67.94;99521.48;1721366;82;21029;-65
2021/07/19 05:03:19;;;;;;;20.77;4.15;;;;;;;20.86;67.36;99524.08;1671149;83;22120;-65
2021/07/19 05:05:48;;;;;;;14.38;3.58;;;;;;;20.59;67.56;99530.14;1709261;82;20919;-65
2021/07/19 05:08:20;;;;;;;9.70;3.10;;;;;;;21.35;68.64;99526.10;1704267;83;20980;-65
2021/07/19 05:10:50;;;;;;;12.25;3.70;;;;;;;22.24;67.34;99524.17;1711852;82;21032;-65
2021/07/19 05:13:18;;;;;;;10.15;3.77;;;;;;;22.47;66.83;99525.36;1708351;82;21070;-65
2021/07/19 05:15:46;;;;;;;14.23;3.45;;;;;;;22.83;66.84;99525.80;1705298;82;22002;-66
2021/07/19 05:18:18;;;;;;;7.05;3.10;;;;;;;23.33;66.27;99520.63;1704568;83;21630;-66
2021/07/19 05:20:48;;;;;;;10.98;3.58;;;;;;;23.22;65.62;99527.06;1709470;83;21032;-66
2021/07/19 05:23:18;;;;;;;21.05;3.98;;;;;;;22.92;65.18;99529.67;1703109;83;21062;-65
2021/07/19 05:25:45;;;;;;;15.78;3.90;;;;;;;22.50;64.82;99530.37;1703357;83;20997;-66
2021/07/19 05:28:14;;;;;;;24.82;4.45;;;;;;;22.42;65.02;99532.95;1699560;82;21587;-66
2021/07/19 05:30:45;;;;;;;16.37;4.15;;;;;;;22.39;65.00;99530.61;1703279;83;20966;-65
2021/07/19 05:33:15;;;;;;;18.50;4.30;;;;;;;22.32;64.43;99542.83;1711064;82;21582;-66
2021/07/19 05:35:42;;;;;;;17.42;10.10;;;;;;;22.29;64.69;99536.02;1707904;83;20990;-66
2021/07/19 05:38:09;;;;;;;;;;;;;;;22.42;64.28;99538.28;1719243;81;21310;-66
2021/07/19 05:40:46;;;;;;;18.73;4.35;;;;;;;22.28;63.53;99538.81;1700812;82;21144;-66
2021/07/19 05:43:25;;;;;;;65.65;7.47;;;;;;;22.11;63.73;99538.63;1728564;81;20984;-65
2021/07/19 05:46:02;;;;;;;26.77;5.03;;;;;;;21.93;63.48;99537.78;1723766;82;21535;-65
2021/07/19 05:48:38;;;;;;;23.20;4.08;;;;;;;21.74;63.27;99544.55;1702309;81;21009;-65
2021/07/19 05:51:05;;;;;;;36.23;5.67;;;;;;;21.59;63.33;99532.22;1727414;81;21041;-66
2021/07/19 05:53:33;;;;;;;20.48;4.58;;;;;;;22.19;64.03;99535.75;1728515;81;21085;-66
2021/07/19 05:56:01;;;;;;;17.62;4.15;;;;;;;22.63;62.81;99539.77;1726964;81;20942;-66
2021/07/19 05:58:27;;;;;;;31.85;5.20;;;;;;;22.63;62.56;99538.44;1727843;81;20938;-66
2021/07/19 06:00:54;;;;;;;24.55;4.50;;;;;;;22.45;62.03;99536.64;1727353;81;21097;-66
2021/07/19 06:03:23;;;;;;;42.13;6.55;;;;;;;22.41;62.45;99547.25;1724860;80;21062;-65
2021/07/19 06:05:49;;;;;;;21.02;4.42;;;;;;;22.72;62.53;99537.03;1724073;81;21079;-66
2021/07/19 06:08:16;;;;;;;;;;;;;;;23.15;62.29;99541.16;1729239;81;20962;-65
2021/07/19 06:10:43;;;;;;;;;;;;;;;23.18;61.40;99534.19;1728018;81;20123;-66
2021/07/19 06:13:11;;;;;;;21.25;4.58;;;;;;;23.42;61.40;99536.98;1763339;79;20123;-67
2021/07/19 06:15:40;;;;;;;26.70;4.92;;;;;;;23.63;60.74;99536.55;1756863;80;20989;-67
2021/07/19 06:18:06;;;;;;;;;;;;;;;23.98;60.61;99543.21;1764768;80;20996;-66
2021/07/19 06:20:33;;;;;;;34.90;5.05;;;;;;;24.07;59.86;99540.89;1765292;79;20188;-64
2021/07/19 06:23:02;;;;;;;53.48;5.72;;;;;;;24.21;59.99;99540.24;1762813;80;21366;-64
2021/07/19 06:25:33;;;;;;;46.90;6.35;;;;;;;24.77;60.73;99540.45;1766470;80;20988;-64
2021/07/19 06:28:03;;;;;;;25.72;4.62;;;;;;;25.82;60.75;99534.97;1768893;80;21076;-65
2021/07/19 06:30:31;;;;;;;47.93;5.95;;;;;;;26.68;59.79;99537.11;1764016;79;21077;-65
2021/07/19 06:33:01;;;;;;;40.20;6.30;;;;;;;26.98;59.10;99537.49;1772907;80;21052;-65
2021/07/19 06:35:28;;;;;;;51.63;5.83;;;;;;;27.50;58.19;99526.89;1771134;80;20997;-65
2021/07/19 06:37:55;;;;;;;29.57;4.95;;;;;;;27.40;57.84;99536.06;1772201;80;21597;-66
2021/07/19 06:40:22;;;;;;;29.67;4.47;;;;;;;27.39;56.94;99538.91;1771577;79;21495;-66
2021/07/19 06:42:50;;;;;;;22.60;4.40;;;;;;;27.57;56.94;99538.55;1766695;79;23231;-66
2021/07/19 06:45:17;;;;;;;30.97;4.42;;;;;;;27.45;56.68;99536.34;1775210;79;21542;-65
2021/07/19 06:47:45;;;;;;;32.28;4.87;;;;;;;27.57;55.90;99538.55;1772646;80;22284;-66
2021/07/19 06:50:13;;;;;;;25.80;4.55;;;;;;;27.40;55.05;99544.10;1772828;80;21100;-65
2021/07/19 06:52:42;;;;;;;15.88;3.87;;;;;;;27.14;53.79;99535.64;1773668;80;20930;-65
2021/07/19 06:55:11;;;;;;;18.30;3.92;;;;;;;26.85;54.00;99534.60;1772692;80;21141;-65
2021/07/19 06:57:39;;;;;;;25.95;4.60;;;;;;;27.04;54.49;99543.14;1771091;79;21539;-66
2021/07/19 07:00:09;;;;;;;15.98;4.60;;;;;;;27.14;53.12;99536.98;1773767;80;21083;-65
2021/07/19 07:02:36;;;;;;;27.42;4.78;;;;;;;27.20;53.02;99536.30;1770581;79;21024;-66
2021/07/19 07:05:05;;;;;;;29.35;5.28;;;;;;;26.47;51.19;99534.58;1770548;79;20992;-66
2021/07/19 07:07:32;;;;;;;31.68;5.53;;;;;;;26.30;52.39;99543.76;1770763;79;21131;-65
2021/07/19 07:09:59;;;;;;;48.45;7.00;;;;;;;26.36;51.99;99548.39;1772409;79;20921;-66
2021/07/19 07:12:26;;;;;;;23.50;4.55;;;;;;;26.42;51.89;99549.52;1775654;79;20977;-66
2021/07/19 07:14:55;;;;;;;8.20;3.47;;;;;;;26.24;50.52;99549.80;1774211;79;21672;-66
2021/07/19 07:17:21;;;;;;;21.77;4.03;;;;;;;26.42;51.25;99552.20;1749056;79;21044;-65
2021/07/19 07:19:48;;;;;;;10.80;3.58;;;;;;;26.61;48.97;99546.87;1777479;79;21680;-66
2021/07/19 07:22:16;;;;;;;16.12;4.15;;;;;;;26.24;48.23;99547.12;1773554;79;21029;-66
2021/07/19 07:24:42;;;;;;;23.35;5.37;;;;;;;25.12;47.28;99546.40;1774346;79;21088;-66
2021/07/19 07:27:10;;;;;;;16.73;4.28;;;;;;;24.78;48.20;99548.28;1775019;79;21021;-65
2021/07/19 07:29:40;;;;;;;8.85;3.08;;;;;;;24.53;49.56;99553.30;1774960;79;21095;-65
2021/07/19 07:32:08;;;;;;;20.52;4.55;;;;;;;24.07;48.69;99554.23;1778696;79;21071;-65
2021/07/19 07:34:34;;;;;;;28.00;5.15;;;;;;;23.70;49.45;99558.09;1771680;79;21514;-65
2021/07/19 07:37:01;;;;;;;18.62;4.12;;;;;;;23.58;49.63;99567.34;1774129;79;20977;-65
2021/07/19 07:39:28;;;;;;;12.33;3.12;;;;;;;23.71;49.92;99561.11;1771360;79;21006;-66
2021/07/19 07:41:55;;;;;;;9.58;3.40;;;;;;;23.48;48.54;99559.99;1771011;79;21021;-65
2021/07/19 07:44:22;;;;;;;;;;;;;;;23.03;47.99;99578.38;1782056;79;21105;-66
2021/07/19 07:46:49;;;;;;;10.63;3.27;;;;;;;22.30;48.22;99570.92;1773584;79;20289;-65
2021/07/19 07:49:17;;;;;;;7.33;3.40;;;;;;;21.84;48.16;99573.21;1770587;79;20972;-65
2021/07/19 07:51:45;;;;;;;7.22;3.60;;;;;;;21.49;49.16;99569.47;1773834;79;20986;-65
2021/07/19 07:54:12;;;;;;;9.53;2.87;;;;;;;21.42;49.29;99567.05;1768093;79;21024;-65
2021/07/19 07:56:38;;;;;;;;;;;;;;;21.21;49.51;99572.05;1766994;79;21116;-65
2021/07/19 07:59:05;;;;;;;21.57;4.87;;;;;;;21.13;50.15;99567.95;1767388;79;20145;-66
2021/07/19 08:01:32;;;;;;;15.15;3.83;;;;;;;21.17;50.57;99568.02;1742829;80;20995;-65
2021/07/19 08:03:59;;;;;;;5.33;2.85;;;;;;;21.63;50.75;99566.33;1735959;81;21496;-65
2021/07/19 08:06:25;;;;;;;13.35;3.40;;;;;;;22.00;47.94;99578.72;1728372;81;21045;-65
2021/07/19 08:08:52;;;;;;;7.55;3.08;;;;;;;21.48;49.61;99571.77;1705172;82;21165;-65
2021/07/19 08:11:20;;;;;;;28.65;4.67;;;;;;;21.34;50.12;99573.53;1698686;83;21601;-65
2021/07/19 08:13:47;;;;;;;22.60;4.55;;;;;;;21.37;50.79;99573.27;1739358;81;20997;-65
2021/07/19 08:16:13;;;;;;;;;;;;;;;21.61;50.57;99570.95;1737015;81;20941;-65
2021/07/19 08:18:40;;;;;;;20.32;4.50;;;;;;;21.46;50.12;99575.08;1731239;81;20481;-65
2021/07/19 08:21:07;;;;;;;17.73;3.58;;;;;;;21.71;50.94;99564.77;1702529;82;21140;-65
2021/07/19 08:23:34;;;;;;;11.12;3.65;;;;;;;22.27;50.74;99573.89;1739497;81;22226;-64
2021/07/19 08:26:01;;;;;;;4.50;2.50;;;;;;;22.24;49.92;99574.70;1736226;81;20975;-65
2021/07/19 08:28:27;;;;;;;;;;;;;;;22.13;49.24;99567.23;1733828;81;21512;-65
2021/07/19 08:30:54;;;;;;;11.55;3.52;;;;;;;21.92;49.32;99570.64;1703500;82;20265;-65
2021/07/19 08:33:21;;;;;;;27.58;5.05;;;;;;;22.10;50.35;99567.54;1709964;82;21179;-65
2021/07/19 08:35:47;;;;;;;23.45;5.15;;;;;;;22.79;50.80;99553.20;1759709;80;20918;-65
2021/07/19 08:38:14;;;;;;;11.33;3.15;;;;;;;22.97;47.43;99559.37;1764796;80;20956;-65
2021/07/19 08:40:48;;;;;;;5.95;2.37;;;;;;;22.51;47.65;99571.94;1762946;80;22216;-65
2021/07/19 08:43:15;;;;;;;6.65;3.50;;;;;;;21.63;47.75;99567.66;1762279;80;20979;-65
2021/07/19 08:45:41;;;;;;;6.58;3.17;;;;;;;21.02;48.77;99574.75;1762123;80;21068;-63
2021/07/19 08:48:08;;;;;;;10.13;3.85;;;;;;;20.63;49.53;99577.45;1735686;81;21488;-63
2021/07/19 08:50:35;;;;;;;17.05;3.72;;;;;;;20.71;50.52;99574.94;1733414;81;21084;-63
2021/07/19 08:53:02;;;;;;;10.95;3.52;;;;;;;21.43;51.06;99570.06;1734144;81;21095;-63
2021/07/19 08:55:29;;;;;;;6.78;3.08;;;;;;;22.21;50.86;99564.33;1700801;82;20958;-64
2021/07/19 08:57:59;;;;;;;14.60;4.35;;;;;;;22.77;50.11;99572.00;1701375;82;21409;-63
2021/07/19 09:00:27;;;;;;;16.57;4.25;;;;;;;23.08;49.89;99564.08;1735442;81;21053;-63
2021/07/19 09:02:54;;;;;;;7.25;2.87;;;;;;;22.51;49.24;99573.77;1734879;81;20910;-63
2021/07/19 09:05:21;;;;;;;12.70;3.60;;;;;;;21.60;49.46;99575.92;1760531;80;21045;-64
2021/07/19 09:07:48;;;;;;;8.40;2.65;;;;;;;20.96;50.21;99585.95;1764922;80;21500;-63
2021/07/19 09:10:15;;;;;;;11.18;3.12;;;;;;;20.31;50.76;99582.52;1759334;80;21069;-64
2021/07/19 09:12:45;;;;;;;7.22;3.42;;;;;;;20.12;51.46;99575.86;1754810;80;21120;-63
2021/07/19 09:15:14;;;;;;;13.10;3.27;;;;;;;20.40;51.71;99577.36;1758600;80;20881;-63
2021/07/19 09:17:41;;;;;;;28.55;4.53;;;;;;;20.50;52.20;99582.16;1760404;80;20938;-63
2021/07/19 09:20:15;;;;;;;17.02;3.35;;;;;;;21.00;52.40;99579.36;1763818;80;21034;-63
2021/07/19 09:22:42;;;;;;;18.25;3.62;;;;;;;21.67;52.74;99576.99;1759489;80;21479;-63
2021/07/19 09:25:16;;;;;;;17.65;3.60;;;;;;;22.53;52.40;99580.61;1757067;80;21032;-64
2021/07/19 09:28:11;;;;;;;13.08;3.17;;;;;;;22.75;51.72;99573.15;1765887;80;21552;-63
2021/07/19 09:33:10;;;;;;;11.25;3.20;;;;;;;22.48;51.39;99578.89;1857653;76;22773;-63
2021/07/19 09:35:46;;;;;;;42.65;4.78;;;;;;;22.18;51.41;99577.93;1842316;77;21068;-63
2021/07/19 09:38:18;;;;;;;22.27;3.65;;;;;;;21.82;51.56;99580.52;1847648;76;21756;-63
2021/07/19 09:40:48;;;;;;;17.57;3.55;;;;;;;21.60;51.46;99577.25;1845610;76;21531;-64
2021/07/19 09:43:26;;;;;;;31.73;5.42;;;;;;;21.49;51.79;99586.73;1811994;77;20957;-64
2021/07/19 09:46:03;;;;;;;15.45;3.35;;;;;;;21.71;52.41;99580.72;1850952;77;20981;-64
2021/07/19 09:48:31;;;;;;;9.75;3.15;;;;;;;21.96;51.81;99589.31;1850077;77;21011;-64
2021/07/19 09:50:59;;;;;;;9.78;2.25;;;;;;;22.39;51.63;99594.45;1845611;76;21053;-64
2021/07/19 09:53:43;;;;;;;6.70;1.70;;;;;;;22.15;50.10;99588.84;1835664;76;21568;-63
2021/07/19 09:56:24;;;;;;;8.10;2.00;;;;;;;21.89;50.36;99586.89;1840566;77;21071;-63
2021/07/19 09:59:09;;;;;;;6.33;1.90;;;;;;;21.85;50.94;99580.22;1836668;76;20979;-63
2021/07/19 10:01:44;;;;;;;14.90;2.83;;;;;;;22.22;51.07;99580.15;1831972;77;20925;-64
2021/07/19 10:04:23;;;;;;;8.43;2.50;;;;;;;22.44;50.89;99581.53;1834984;76;21446;-62
2021/07/19 10:06:56;;;;;;;7.70;2.45;;;;;;;22.36;50.68;99584.11;1845219;77;21017;-63
2021/07/19 10:09:23;;;;;;;5.20;2.15;;;;;;;21.90;50.49;99575.27;1835359;77;21032;-63
2021/07/19 10:11:56;;;;;;;13.80;2.47;;;;;;;22.13;49.90;99583.19;1845548;77;20914;-64
2021/07/19 10:14:33;;;;;;;11.48;2.20;;;;;;;22.60;51.84;99579.99;1787644;78;21112;-64
2021/07/19 10:17:03;;;;;;;6.87;2.08;;;;;;;23.06;50.79;99580.23;1772188;79;21918;-64
2021/07/19 10:19:32;;;;;;;6.87;2.67;;;;;;;23.25;49.60;99585.84;1786843;79;20939;-64
2021/07/19 10:21:59;;;;;;;6.28;1.95;;;;;;;22.88;49.57;99591.36;1784710;79;21558;-64
2021/07/19 10:24:27;;;;;;;7.95;2.25;;;;;;;22.63;50.49;99582.34;1784523;78;20918;-64
2021/07/19 10:26:54;;;;;;;14.30;2.70;;;;;;;22.85;50.62;99586.35;1802520;78;21013;-63
2021/07/19 10:29:21;;;;;;;11.20;2.55;;;;;;;22.73;50.67;99583.11;1801904;78;21065;-64
2021/07/19 10:31:48;;;;;;;11.45;2.80;;;;;;;22.68;50.24;99585.39;1808186;78;21650;-63
2021/07/19 10:34:19;;;;;;;16.00;2.55;;;;;;;22.42;49.81;99599.46;1777251;80;21554;-64
2021/07/19 10:37:00;;;;;;;8.48;2.47;;;;;;;21.95;50.23;99591.61;1788205;79;20963;-64
2021/07/19 10:39:39;;;;;;;8.03;2.33;;;;;;;22.01;50.64;99593.67;1788617;79;21046;-63
2021/07/19 10:42:09;;;;;;;27.75;4.60;;;;;;;21.84;50.56;99601.12;1815998;78;21116;-64
2021/07/19 10:44:43;;;;;;;12.70;3.20;;;;;;;21.81;51.19;99589.45;1816297;78;20954;-64
2021/07/19 10:47:22;;;;;;;9.03;2.67;;;;;;;22.32;51.68;99585.38;1809192;78;21046;-63
2021/07/19 10:50:06;;;;;;;5.78;2.40;;;;;;;22.69;50.94;99584.41;1789564;78;20973;-64
2021/07/19 10:52:37;;;;;;;7.33;2.40;;;;;;;22.53;50.67;99596.58;1780939;79;21006;-64
2021/07/19 10:55:10;;;;;;;9.03;2.40;;;;;;;22.15;49.87;99602.13;1788867;79;21521;-65
2021/07/19 10:57:44;;;;;;;5.87;2.30;;;;;;;21.96;51.43;99601.28;1786890;79;20990;-64
2021/07/19 11:00:16;;;;;;;11.88;2.75;;;;;;;22.55;52.16;99589.28;1781400;79;21016;-65
2021/07/19 11:02:43;;;;;;;17.17;3.10;;;;;;;23.15;51.63;99583.27;1809280;78;21108;-64
2021/07/19 11:05:12;;;;;;;4.47;2.00;;;;;;;23.36;51.70;99577.59;1760567;80;22014;-65
2021/07/19 11:07:41;;;;;;;13.28;2.35;;;;;;;23.49;49.90;99581.64;1819045;78;21064;-64
2021/07/19 11:10:22;;;;;;;12.53;2.90;;;;;;;23.10;51.02;99585.56;1813708;78;21112;-64
2021/07/19 11:12:52;;;;;;;14.98;2.42;;;;;;;23.12;51.03;99596.08;1814198;78;21064;-64
2021/07/19 11:15:21;;;;;;;9.48;2.83;;;;;;;23.06;50.66;99594.05;1780096;78;21546;-64
2021/07/19 11:17:50;;;;;;;24.72;4.40;;;;;;;22.58;50.93;99588.64;1785133;78;21595;-64
2021/07/19 11:20:18;;;;;;;22.70;4.40;;;;;;;22.82;51.92;99590.16;1796107;79;21626;-64
2021/07/19 11:22:45;;;;;;;17.00;4.00;;;;;;;23.24;51.61;99580.99;1796168;79;21640;-64
2021/07/19 11:25:15;;;;;;;21.65;3.67;;;;;;;23.45;51.47;99581.13;1792290;79;20935;-64
2021/07/19 11:29:09;;;;;;;10.25;2.50;;;;;;;23.34;51.34;99594.72;1870149;75;22652;-64
2021/07/19 11:31:36;;;;;;;9.00;2.72;;;;;;;22.93;50.55;99593.90;1845345;77;21008;-63
2021/07/19 11:34:05;;;;;;;8.65;3.20;;;;;;;22.37;50.76;99595.58;1837455;77;21459;-63
2021/07/19 11:36:46;;;;;;;15.43;3.40;;;;;;;21.85;51.22;99596.16;1848153;77;21013;-63
2021/07/19 11:39:21;;;;;;;15.60;3.15;;;;;;;21.49;52.06;99600.02;1843785;77;20957;-65
2021/07/19 11:42:05;;;;;;;7.90;2.70;;;;;;;21.46;52.43;99598.98;1845814;77;20969;-64
2021/07/19 11:44:32;;;;;;;7.22;2.12;;;;;;;21.64;52.22;99591.91;1843959;76;20969;-63
2021/07/19 11:47:03;;;;;;;8.50;3.05;;;;;;;21.55;52.41;99590.13;1837514;76;21075;-64